createdAt,value
2022-10-09T00:01:19.048Z,9.70
2022-10-09T00:03:49.642Z,9.70
2022-10-09T00:06:20.439Z,9.60
2022-10-09T00:08:48.826Z,9.60
2022-10-09T00:11:20.581Z,9.60
2022-10-09T00:13:48.844Z,9.50
2022-10-09T00:16:18.886Z,9.50
2022-10-09T00:18:47.574Z,9.50
2022-10-09T00:21:21.113Z,9.50
2022-10-09T00:23:50.080Z,9.40
2022-10-09T00:26:20.067Z,9.40
2022-10-09T00:28:48.549Z,9.40
2022-10-09T00:31:17.511Z,9.30
2022-10-09T00:33:46.126Z,9.40
2022-10-09T00:36:16.492Z,9.40
2022-10-09T00:38:45.325Z,9.40
2022-10-09T00:41:16.809Z,9.30
2022-10-09T00:43:48.454Z,9.30
2022-10-09T00:46:26.659Z,9.30
2022-10-09T00:49:02.092Z,9.30
2022-10-09T00:51:32.224Z,9.20
2022-10-09T00:54:01.149Z,9.30
2022-10-09T00:56:29.889Z,9.30
2022-10-09T00:59:00.190Z,9.30
2022-10-09T01:01:28.611Z,9.30
2022-10-09T01:03:56.888Z,9.20
2022-10-09T01:06:33.802Z,9.30
2022-10-09T01:09:06.616Z,9.30
2022-10-09T01:11:41.454Z,9.30
2022-10-09T01:14:23.872Z,9.30
2022-10-09T01:16:58.152Z,9.20
2022-10-09T01:19:41.530Z,9.10
2022-10-09T01:22:23.126Z,9.20
2022-10-09T01:24:56.642Z,9.10
2022-10-09T01:27:28.714Z,9.10
2022-10-09T01:30:00.847Z,9.10
2022-10-09T01:32:32.679Z,9.20
2022-10-09T01:35:01.710Z,9.10
2022-10-09T01:37:32.992Z,9.10
2022-10-09T01:40:03.002Z,9.10
2022-10-09T01:42:33.577Z,9.00
2022-10-09T01:45:01.951Z,8.90
2022-10-09T01:47:30.465Z,9.00
2022-10-09T01:50:04.381Z,8.90
2022-10-09T01:52:41.594Z,8.80
2022-10-09T01:55:31.312Z,8.90
2022-10-09T01:58:06.633Z,8.90
2022-10-09T02:00:38.744Z,8.90
2022-10-09T02:03:11.495Z,8.80
2022-10-09T02:05:42.199Z,8.70
2022-10-09T02:08:12.246Z,8.70
2022-10-09T02:10:42.277Z,8.70
2022-10-09T02:13:12.444Z,8.60
2022-10-09T02:15:47.805Z,8.60
2022-10-09T02:18:20.270Z,8.50
2022-10-09T02:20:51.998Z,8.50
2022-10-09T02:23:22.769Z,8.50
2022-10-09T02:25:51.951Z,8.60
2022-10-09T02:28:22.618Z,8.50
2022-10-09T02:30:58.681Z,8.60
2022-10-09T02:33:33.393Z,8.50
2022-10-09T02:36:02.492Z,8.50
2022-10-09T02:38:30.798Z,8.40
2022-10-09T02:41:00.052Z,8.40
2022-10-09T02:43:30.165Z,8.30
2022-10-09T02:45:58.637Z,8.30
2022-10-09T02:48:26.947Z,8.30
2022-10-09T02:50:55.114Z,8.40
2022-10-09T02:53:23.293Z,8.40
2022-10-09T02:55:51.785Z,8.40
2022-10-09T02:58:20.000Z,8.40
2022-10-09T03:00:51.503Z,8.30
2022-10-09T03:03:20.583Z,8.20
2022-10-09T03:05:49.618Z,8.10
2022-10-09T03:08:17.789Z,8.10
2022-10-09T03:10:46.257Z,8.10
2022-10-09T03:13:14.522Z,8.10
2022-10-09T03:15:42.798Z,8.10
2022-10-09T03:18:12.357Z,8.10
2022-10-09T03:20:40.828Z,8.10
2022-10-09T03:23:09.038Z,8.10
2022-10-09T03:25:37.652Z,8.00
2022-10-09T03:28:06.160Z,8.00
2022-10-09T03:30:34.492Z,8.10
2022-10-09T03:33:02.689Z,8.10
2022-10-09T03:35:32.440Z,8.10
2022-10-09T03:38:00.724Z,8.20
2022-10-09T03:40:29.081Z,8.20
2022-10-09T03:42:57.297Z,8.10
2022-10-09T03:45:25.883Z,8.20
2022-10-09T03:47:54.167Z,8.20
2022-10-09T03:50:22.497Z,8.20
2022-10-09T03:52:52.193Z,8.30
2022-10-09T03:55:20.581Z,8.30
2022-10-09T03:57:48.788Z,8.30
2022-10-09T04:00:17.225Z,8.30
2022-10-09T04:02:45.624Z,8.40
2022-10-09T04:05:14.172Z,8.40
2022-10-09T04:07:42.395Z,8.40
2022-10-09T04:10:12.622Z,8.40
2022-10-09T04:12:41.127Z,8.40
2022-10-09T04:15:10.613Z,8.40
2022-10-09T04:17:40.005Z,8.40
2022-10-09T04:20:09.067Z,8.40
2022-10-09T04:22:37.308Z,8.40
2022-10-09T04:25:05.909Z,8.40
2022-10-09T04:27:35.659Z,8.40
2022-10-09T04:30:04.110Z,8.40
2022-10-09T04:32:32.358Z,8.30
2022-10-09T04:35:00.580Z,8.30
2022-10-09T04:37:28.778Z,8.30
2022-10-09T04:39:56.958Z,8.30
2022-10-09T04:42:25.285Z,8.30
2022-10-09T04:44:54.778Z,8.30
2022-10-09T04:47:22.975Z,8.30
2022-10-09T04:49:51.253Z,8.30
2022-10-09T04:52:19.439Z,8.30
2022-10-09T04:54:47.790Z,8.30
2022-10-09T04:57:16.367Z,8.30
2022-10-09T04:59:44.686Z,8.30
2022-10-09T05:02:14.189Z,8.30
2022-10-09T05:04:44.036Z,8.30
2022-10-09T05:07:12.580Z,8.30
2022-10-09T05:09:40.879Z,8.30
2022-10-09T05:12:09.420Z,8.30
2022-10-09T05:14:37.801Z,8.30
2022-10-09T05:17:13.969Z,8.30
2022-10-09T05:19:44.230Z,8.20
2022-10-09T05:22:12.441Z,8.20
2022-10-09T05:24:40.884Z,8.30
2022-10-09T05:27:09.096Z,8.20
2022-10-09T05:29:37.460Z,8.20
2022-10-09T05:32:05.830Z,8.30
2022-10-09T05:34:35.021Z,8.30
2022-10-09T05:37:04.958Z,8.20
2022-10-09T05:39:35.831Z,8.20
2022-10-09T05:42:04.140Z,8.20
2022-10-09T05:44:32.342Z,8.20
2022-10-09T05:47:01.025Z,8.20
2022-10-09T05:49:29.229Z,8.20
2022-10-09T05:51:57.590Z,8.10
2022-10-09T05:54:27.404Z,8.10
2022-10-09T05:56:55.597Z,8.10
2022-10-09T05:59:23.764Z,8.10
2022-10-09T06:01:53.592Z,8.00
2022-10-09T06:04:23.802Z,8.10
2022-10-09T06:06:52.556Z,8.10
2022-10-09T06:09:23.181Z,8.10
2022-10-09T06:11:54.244Z,8.10
2022-10-09T06:14:23.193Z,8.10
2022-10-09T06:16:52.101Z,8.10
2022-10-09T06:19:21.389Z,8.10
2022-10-09T06:21:50.609Z,8.10
2022-10-09T06:24:25.583Z,8.10
2022-10-09T06:26:57.898Z,8.10
2022-10-09T06:29:26.157Z,8.10
2022-10-09T06:31:54.803Z,8.10
2022-10-09T06:34:23.286Z,8.10
2022-10-09T06:36:51.593Z,8.20
2022-10-09T06:39:20.045Z,8.20
2022-10-09T06:41:48.228Z,8.20
2022-10-09T06:44:17.989Z,8.30
2022-10-09T06:46:46.989Z,8.30
2022-10-09T06:49:15.181Z,8.30
2022-10-09T06:51:43.644Z,8.40
2022-10-09T06:54:14.106Z,8.40
2022-10-09T06:56:42.914Z,8.40
2022-10-09T06:59:12.232Z,8.50
2022-10-09T07:01:41.828Z,8.50
2022-10-09T07:04:17.639Z,8.60
2022-10-09T07:06:47.826Z,8.60
2022-10-09T07:09:17.251Z,8.70
2022-10-09T07:11:48.885Z,8.70
2022-10-09T07:14:17.334Z,8.80
2022-10-09T07:16:48.943Z,8.80
2022-10-09T07:19:18.391Z,8.90
2022-10-09T07:21:49.062Z,9.10
2022-10-09T07:24:18.120Z,9.20
2022-10-09T07:26:47.603Z,9.30
2022-10-09T07:29:17.712Z,9.50
2022-10-09T07:31:47.377Z,9.50
2022-10-09T07:34:15.552Z,9.50
2022-10-09T07:36:44.167Z,9.50
2022-10-09T07:39:12.609Z,9.60
2022-10-09T07:41:40.876Z,9.90
2022-10-09T07:44:10.289Z,9.90
2022-10-09T07:46:39.094Z,10.30
2022-10-09T07:49:08.614Z,11.00
2022-10-09T07:51:36.999Z,10.70
2022-10-09T07:54:05.492Z,10.80
2022-10-09T07:56:35.570Z,10.70
2022-10-09T07:59:05.645Z,10.60
2022-10-09T08:01:35.104Z,10.60
2022-10-09T08:04:04.485Z,10.70
2022-10-09T08:06:34.691Z,10.70
2022-10-09T08:09:04.358Z,11.00
2022-10-09T08:11:33.312Z,11.60
2022-10-09T08:14:01.803Z,11.30
2022-10-09T08:16:30.518Z,11.20
2022-10-09T08:19:00.251Z,11.30
2022-10-09T08:21:29.106Z,11.90
2022-10-09T08:24:00.202Z,12.50
2022-10-09T08:26:30.302Z,13.50
2022-10-09T08:29:01.157Z,13.90
2022-10-09T08:31:29.879Z,14.60
2022-10-09T08:34:00.022Z,14.00
2022-10-09T08:36:28.648Z,13.30
2022-10-09T08:38:58.077Z,12.80
2022-10-09T08:41:42.072Z,12.50
2022-10-09T08:44:16.311Z,12.50
2022-10-09T08:47:03.834Z,12.90
2022-10-09T08:49:41.491Z,14.30
2022-10-09T08:52:24.666Z,13.90
2022-10-09T08:54:55.180Z,14.10
2022-10-09T08:57:24.644Z,13.60
2022-10-09T08:59:52.815Z,14.20
2022-10-09T09:02:33.302Z,14.10
2022-10-09T09:05:11.672Z,13.30
2022-10-09T09:07:50.216Z,13.40
2022-10-09T09:10:26.906Z,13.30
2022-10-09T09:12:58.186Z,13.20
2022-10-09T09:15:44.834Z,13.20
2022-10-09T09:18:25.839Z,13.70
2022-10-09T09:20:54.952Z,13.60
2022-10-09T09:23:28.368Z,14.80
2022-10-09T09:25:59.641Z,14.00
2022-10-09T09:28:30.365Z,14.10
2022-10-09T09:31:03.846Z,14.00
2022-10-09T09:33:43.586Z,13.90
2022-10-09T09:36:19.076Z,14.40
2022-10-09T09:39:12.869Z,14.50
2022-10-09T09:41:36.905Z,15.10
2022-10-09T09:44:06.217Z,14.60
2022-10-09T09:46:35.471Z,14.70
2022-10-09T09:49:08.512Z,15.10
2022-10-09T09:51:38.057Z,14.70
2022-10-09T09:54:08.838Z,15.40
2022-10-09T09:57:11.215Z,15.50
2022-10-09T09:59:33.942Z,15.60
2022-10-09T10:02:03.745Z,15.70
2022-10-09T10:04:32.275Z,16.10
2022-10-09T10:07:00.827Z,15.60
2022-10-09T10:09:29.058Z,15.70
2022-10-09T10:12:00.763Z,16.70
2022-10-09T10:14:29.598Z,17.60
2022-10-09T10:17:00.708Z,18.10
2022-10-09T10:19:31.577Z,18.50
2022-10-09T10:22:01.427Z,18.60
2022-10-09T10:24:33.758Z,17.80
2022-10-09T10:27:06.477Z,16.70
2022-10-09T10:29:38.270Z,15.50
2022-10-09T10:32:13.348Z,15.10
2022-10-09T10:34:46.871Z,15.00
2022-10-09T10:37:28.949Z,14.90
2022-10-09T10:40:02.570Z,14.90
2022-10-09T10:42:45.537Z,14.90
2022-10-09T10:45:19.217Z,14.90
2022-10-09T10:47:52.766Z,15.00
2022-10-09T10:50:22.822Z,15.10
2022-10-09T10:53:02.554Z,15.20
2022-10-09T10:55:46.207Z,15.10
2022-10-09T10:58:26.416Z,15.10
2022-10-09T11:01:12.158Z,15.70
2022-10-09T11:03:54.240Z,15.70
2022-10-09T11:06:29.889Z,15.90
2022-10-09T11:09:06.551Z,16.50
2022-10-09T11:11:41.455Z,16.60
2022-10-09T11:14:22.777Z,16.60
2022-10-09T11:17:02.436Z,16.30
2022-10-09T11:19:57.644Z,16.40
2022-10-09T11:22:41.220Z,16.50
2022-10-09T11:25:21.844Z,16.50
2022-10-09T11:27:55.804Z,16.30
2022-10-09T11:30:26.749Z,17.00
2022-10-09T11:33:02.066Z,16.80
2022-10-09T11:35:35.173Z,16.70
2022-10-09T11:38:07.943Z,17.10
2022-10-09T11:40:42.059Z,17.30
2022-10-09T11:43:22.074Z,17.10
2022-10-09T11:45:56.200Z,17.10
2022-10-09T11:48:36.377Z,17.50
2022-10-09T11:51:10.063Z,17.30
2022-10-09T11:53:40.070Z,17.30
2022-10-09T11:56:10.230Z,17.50
2022-10-09T11:58:38.605Z,17.40
2022-10-09T12:01:23.925Z,17.20
2022-10-09T12:04:01.447Z,17.60
2022-10-09T12:06:30.395Z,17.60
2022-10-09T12:09:01.582Z,18.00
2022-10-09T12:11:30.564Z,17.90
2022-10-09T12:14:00.625Z,17.90
2022-10-09T12:16:40.842Z,17.90
2022-10-09T12:19:24.094Z,18.10
2022-10-09T12:21:58.481Z,18.30
2022-10-09T12:24:28.528Z,18.30
2022-10-09T12:27:01.148Z,18.30
2022-10-09T12:29:33.435Z,17.90
2022-10-09T12:32:09.189Z,18.20
2022-10-09T12:34:43.040Z,18.10
2022-10-09T12:37:13.432Z,18.20
2022-10-09T12:39:41.800Z,18.80
2022-10-09T12:42:19.944Z,19.20
2022-10-09T12:44:49.650Z,19.30
2022-10-09T12:47:23.820Z,19.40
2022-10-09T12:50:00.115Z,19.50
2022-10-09T12:52:28.682Z,19.60
2022-10-09T12:54:57.046Z,19.60
2022-10-09T12:57:28.041Z,19.60
2022-10-09T12:59:57.316Z,19.70
2022-10-09T13:02:26.927Z,19.80
2022-10-09T13:05:02.112Z,19.70
2022-10-09T13:07:32.612Z,19.80
2022-10-09T13:10:07.709Z,19.50
2022-10-09T13:12:36.724Z,19.30
2022-10-09T13:15:06.709Z,19.00
2022-10-09T13:17:38.069Z,19.00
2022-10-09T13:20:25.772Z,19.30
2022-10-09T13:22:56.143Z,19.20
2022-10-09T13:25:24.731Z,19.20
2022-10-09T13:27:53.166Z,19.50
2022-10-09T13:30:21.501Z,19.50
2022-10-09T13:32:50.954Z,19.50
2022-10-09T13:35:21.919Z,19.50
2022-10-09T13:37:50.575Z,19.70
2022-10-09T13:40:21.900Z,19.80
2022-10-09T13:42:54.905Z,19.70
2022-10-09T13:45:23.733Z,19.30
2022-10-09T13:47:53.320Z,19.20
2022-10-09T13:50:21.737Z,19.40
2022-10-09T13:52:49.912Z,19.60
2022-10-09T13:55:18.393Z,19.30
2022-10-09T13:57:48.159Z,19.50
2022-10-09T14:00:16.809Z,19.60
2022-10-09T14:02:45.151Z,19.70
2022-10-09T14:05:14.654Z,19.60
2022-10-09T14:07:42.996Z,19.90
2022-10-09T14:10:14.768Z,20.00
2022-10-09T14:12:43.075Z,20.30
2022-10-09T14:15:11.740Z,20.10
2022-10-09T14:17:40.083Z,19.90
2022-10-09T14:20:09.281Z,20.20
2022-10-09T14:22:38.897Z,20.30
2022-10-09T14:25:08.087Z,19.80
2022-10-09T14:27:38.278Z,19.40
2022-10-09T14:30:09.793Z,19.70
2022-10-09T14:32:38.267Z,19.60
2022-10-09T14:35:06.867Z,19.60
2022-10-09T14:37:41.663Z,20.00
2022-10-09T14:40:12.802Z,19.90
2022-10-09T14:42:41.722Z,20.20
2022-10-09T14:45:11.109Z,19.60
2022-10-09T14:47:39.529Z,19.30
2022-10-09T14:50:08.681Z,19.40
2022-10-09T14:52:36.901Z,19.20
2022-10-09T14:55:05.500Z,19.00
2022-10-09T14:57:35.841Z,19.00
2022-10-09T15:00:05.212Z,19.50
2022-10-09T15:02:33.554Z,19.90
2022-10-09T15:05:01.815Z,20.20
2022-10-09T15:07:31.358Z,20.20
2022-10-09T15:09:59.711Z,20.10
2022-10-09T15:12:28.002Z,19.80
2022-10-09T15:14:57.605Z,19.60
2022-10-09T15:17:25.812Z,19.80
2022-10-09T15:19:54.289Z,20.40
2022-10-09T15:22:22.541Z,20.00
2022-10-09T15:24:51.060Z,20.10
2022-10-09T15:27:19.480Z,19.70
2022-10-09T15:29:47.839Z,19.50
2022-10-09T15:32:17.292Z,19.30
2022-10-09T15:34:45.571Z,19.00
2022-10-09T15:37:13.941Z,19.40
2022-10-09T15:39:42.659Z,19.20
2022-10-09T15:42:10.959Z,18.90
2022-10-09T15:44:39.375Z,18.90
2022-10-09T15:47:08.057Z,18.70
2022-10-09T15:49:37.803Z,18.70
2022-10-09T15:52:06.040Z,19.00
2022-10-09T15:54:34.350Z,19.20
2022-10-09T15:57:02.629Z,19.60
2022-10-09T15:59:31.651Z,19.80
2022-10-09T16:02:00.065Z,19.70
2022-10-09T16:04:29.263Z,19.70
2022-10-09T16:06:59.089Z,19.30
2022-10-09T16:09:27.481Z,19.10
2022-10-09T16:11:55.845Z,19.10
2022-10-09T16:14:24.043Z,19.40
2022-10-09T16:16:52.493Z,19.20
2022-10-09T16:19:20.844Z,18.90
2022-10-09T16:21:50.313Z,18.80
2022-10-09T16:24:20.297Z,19.00
2022-10-09T16:26:50.973Z,18.60
2022-10-09T16:29:19.259Z,18.40
2022-10-09T16:31:47.589Z,17.80
2022-10-09T16:34:16.131Z,17.10
2022-10-09T16:36:44.522Z,16.80
2022-10-09T16:39:12.763Z,16.80
2022-10-09T16:41:42.324Z,16.70
2022-10-09T16:44:14.190Z,16.60
2022-10-09T16:46:42.462Z,16.60
2022-10-09T16:49:19.900Z,16.40
2022-10-09T16:51:51.186Z,16.30
2022-10-09T16:54:19.486Z,16.30
2022-10-09T16:56:49.214Z,16.30
2022-10-09T16:59:17.616Z,16.20
2022-10-09T17:01:47.682Z,16.10
2022-10-09T17:04:16.809Z,16.00
2022-10-09T17:06:46.547Z,16.00
2022-10-09T17:09:15.379Z,16.30
2022-10-09T17:11:43.799Z,16.50
2022-10-09T17:14:14.277Z,16.50
2022-10-09T17:16:44.196Z,16.50
2022-10-09T17:19:12.615Z,16.10
2022-10-09T17:21:41.474Z,15.80
2022-10-09T17:24:12.923Z,15.60
2022-10-09T17:26:41.255Z,15.40
2022-10-09T17:29:09.950Z,15.20
2022-10-09T17:31:39.594Z,15.30
2022-10-09T17:34:08.090Z,15.10
2022-10-09T17:36:38.877Z,15.10
2022-10-09T17:39:11.758Z,15.00
2022-10-09T17:41:40.235Z,14.80
2022-10-09T17:44:09.663Z,14.70
2022-10-09T17:46:39.401Z,15.00
2022-10-09T17:49:07.811Z,15.20
2022-10-09T17:51:39.462Z,15.30
2022-10-09T17:54:11.814Z,15.40
2022-10-09T17:56:41.142Z,15.40
2022-10-09T17:59:09.937Z,15.30
2022-10-09T18:01:39.717Z,15.20
2022-10-09T18:04:08.147Z,15.00
2022-10-09T18:06:36.876Z,15.00
2022-10-09T18:09:05.876Z,15.00
2022-10-09T18:11:34.376Z,14.90
2022-10-09T18:14:03.776Z,14.90
2022-10-09T18:16:36.935Z,15.00
2022-10-09T18:19:09.631Z,15.00
2022-10-09T18:21:40.027Z,15.00
2022-10-09T18:24:08.749Z,15.10
2022-10-09T18:26:37.272Z,15.00
2022-10-09T18:29:05.929Z,15.00
2022-10-09T18:31:34.399Z,15.00
2022-10-09T18:34:02.916Z,14.90
2022-10-09T18:36:34.201Z,14.90
2022-10-09T18:39:04.553Z,14.80
2022-10-09T18:41:33.232Z,14.80
2022-10-09T18:44:02.121Z,14.70
2022-10-09T18:46:35.055Z,14.70
2022-10-09T18:49:03.432Z,14.60
2022-10-09T18:51:33.362Z,14.60
2022-10-09T18:54:04.207Z,14.60
2022-10-09T18:56:34.437Z,14.60
2022-10-09T18:59:04.966Z,14.50
2022-10-09T19:01:33.377Z,14.40
2022-10-09T19:04:01.804Z,14.40
2022-10-09T19:06:30.721Z,14.30
2022-10-09T19:09:01.390Z,14.30
2022-10-09T19:11:30.038Z,14.30
2022-10-09T19:14:00.083Z,14.20
2022-10-09T19:16:29.201Z,14.20
2022-10-09T19:18:57.888Z,14.20
2022-10-09T19:21:26.877Z,14.10
2022-10-09T19:23:55.581Z,14.10
2022-10-09T19:26:25.811Z,14.00
2022-10-09T19:28:54.144Z,14.00
2022-10-09T19:31:22.549Z,14.00
2022-10-09T19:33:50.802Z,14.00
2022-10-09T19:36:19.370Z,13.90
2022-10-09T19:38:48.749Z,13.90
2022-10-09T19:41:17.373Z,13.80
2022-10-09T19:43:46.863Z,13.80
2022-10-09T19:46:17.920Z,13.70
2022-10-09T19:48:46.936Z,13.70
2022-10-09T19:51:16.648Z,13.70
2022-10-09T19:53:44.984Z,13.70
2022-10-09T19:56:15.114Z,13.60
2022-10-09T19:58:44.264Z,13.60
2022-10-09T20:01:15.213Z,13.60
2022-10-09T20:03:43.449Z,13.50
2022-10-09T20:06:12.471Z,13.50
2022-10-09T20:08:42.939Z,13.50
2022-10-09T20:11:11.978Z,13.50
2022-10-09T20:13:42.641Z,13.40
2022-10-09T20:16:14.573Z,13.40
2022-10-09T20:18:43.629Z,13.40
2022-10-09T20:21:13.275Z,13.40
2022-10-09T20:23:41.806Z,13.40
2022-10-09T20:26:12.848Z,13.30
2022-10-09T20:28:41.702Z,13.30
2022-10-09T20:31:16.401Z,13.30
2022-10-09T20:33:45.057Z,13.30
2022-10-09T20:36:21.095Z,13.20
2022-10-09T20:38:49.735Z,13.20
2022-10-09T20:41:18.060Z,13.20
2022-10-09T20:43:46.576Z,13.20
2022-10-09T20:46:16.402Z,13.20
2022-10-09T20:48:45.063Z,13.20
2022-10-09T20:51:13.336Z,13.10
2022-10-09T20:53:41.893Z,13.00
2022-10-09T20:56:14.148Z,13.00
2022-10-09T20:58:42.937Z,13.00
2022-10-09T21:01:14.272Z,12.90
2022-10-09T21:03:44.066Z,12.80
2022-10-09T21:06:14.275Z,12.90
2022-10-09T21:08:42.849Z,12.80
2022-10-09T21:11:12.829Z,12.80
2022-10-09T21:13:41.698Z,12.80
2022-10-09T21:16:11.770Z,12.80
2022-10-09T21:18:40.547Z,12.70
2022-10-09T21:21:11.619Z,12.80
2022-10-09T21:23:40.232Z,12.70
2022-10-09T21:26:12.943Z,12.70
2022-10-09T21:28:41.261Z,12.70
2022-10-09T21:31:10.488Z,12.80
2022-10-09T21:33:39.005Z,12.70
2022-10-09T21:36:13.217Z,12.70
2022-10-09T21:38:41.366Z,12.60
2022-10-09T21:41:09.647Z,12.60
2022-10-09T21:43:38.097Z,12.60
2022-10-09T21:46:06.597Z,12.60
2022-10-09T21:48:35.004Z,12.50
2022-10-09T21:51:03.093Z,12.50
2022-10-09T21:53:32.575Z,12.60
2022-10-09T21:56:03.071Z,12.60
2022-10-09T21:58:31.449Z,12.60
2022-10-09T22:01:01.271Z,12.50
2022-10-09T22:03:31.770Z,12.50
2022-10-09T22:06:01.602Z,12.50
2022-10-09T22:08:29.927Z,12.50
2022-10-09T22:10:59.527Z,12.50
2022-10-09T22:13:27.951Z,12.40
2022-10-09T22:15:56.644Z,12.40
2022-10-09T22:18:25.079Z,12.40
2022-10-09T22:20:53.412Z,12.40
2022-10-09T22:23:22.300Z,12.40
2022-10-09T22:26:00.127Z,12.40
2022-10-09T22:28:28.417Z,12.50
2022-10-09T22:31:07.154Z,12.40
2022-10-09T22:33:35.574Z,12.40
2022-10-09T22:36:05.706Z,12.40
2022-10-09T22:38:34.107Z,12.40
2022-10-09T22:41:08.779Z,12.50
2022-10-09T22:43:37.206Z,12.40
2022-10-09T22:46:10.938Z,12.40
2022-10-09T22:48:40.385Z,12.30
2022-10-09T22:51:10.523Z,12.30
2022-10-09T22:53:39.329Z,12.30
2022-10-09T22:56:10.516Z,12.30
2022-10-09T22:58:38.705Z,12.30
2022-10-09T23:01:08.871Z,12.30
2022-10-09T23:03:37.426Z,12.30
2022-10-09T23:06:13.409Z,12.30
2022-10-09T23:08:43.416Z,12.30
2022-10-09T23:11:13.855Z,12.30
2022-10-09T23:13:42.382Z,12.40
2022-10-09T23:16:13.226Z,12.30
2022-10-09T23:18:42.450Z,12.40
2022-10-09T23:21:12.777Z,12.40
2022-10-09T23:23:41.414Z,12.40
2022-10-09T23:26:13.273Z,12.40
2022-10-09T23:28:41.813Z,12.40
2022-10-09T23:31:11.715Z,12.40
2022-10-09T23:33:41.006Z,12.40
2022-10-09T23:36:10.927Z,12.40
2022-10-09T23:38:39.810Z,12.40
2022-10-09T23:41:09.816Z,12.40
2022-10-09T23:43:41.518Z,12.40
2022-10-09T23:46:13.167Z,12.40
2022-10-09T23:48:41.578Z,12.40
2022-10-09T23:51:10.377Z,12.30
2022-10-09T23:53:38.697Z,12.40
2022-10-09T23:56:08.095Z,12.40
2022-10-09T23:58:36.361Z,12.50
